General Aviation Weather

Text Reports

Enter one or more of the following location identifiers separated by a space:

Zip Code, Four-Character ICAO or Three-Character IATA airport codes.

METAR - Aviation Routine Weather Report
KLEW - Auburn-Lewiston, Maine
Updated at 8:55 PM GMT on August 02, 2015 (4:55 PM EDT):
METAR KLEW 022055Z 21010KT 10SM CLR 27/12 A2984 RMK AO1 57003
TAF - Terminal Area Forecast
KLEW - Auburn-Lewiston, Maine
Updated at 8:55 PM GMT on August 02, 2015 (4:55 PM EDT):
No TAF is currently available for this location.
Decoded:
No decoded TAF is available.
PIREP - Pilot Weather Report
KLEW - Auburn-Lewiston, Maine
Updated at 8:55 PM GMT on August 02, 2015 (4:55 PM EDT):
No PIREP is currently available for this location.
AIRMET - Airmens Meteorological Information
KLEW - Auburn-Lewiston, Maine
Updated at 8:55 PM GMT on August 02, 2015 (4:55 PM EDT):
No AIRMET is currently available for this location.
SIGMET - Significant Meteorological Information
KLEW - Auburn-Lewiston, Maine
Updated at 8:55 PM GMT on August 02, 2015 (4:55 PM EDT):
No SIGMET is currently available for this location.
NOTAM - Notice to Airmen
KLEW - Auburn-Lewiston, Maine
Updated at 8:55 PM GMT on August 02, 2015 (4:55 PM EDT):
No NOTAM is currently available for this location.
Forecast Area
KLEW - Auburn-Lewiston, Maine
Updated at 8:55 PM GMT on August 02, 2015 (4:55 PM EDT):
No NOTAM is currently available for this location.
Aviation Weather Maps